sensor_id;sensor_type;location;lat;lon;timestamp;temperature;humidity
2220;DHT22;1116;51.502;7.414;2024-02-26T00:00:47;8.30;42.40
2220;DHT22;1116;51.502;7.414;2024-02-26T00:03:20;8.10;42.20
2220;DHT22;1116;51.502;7.414;2024-02-26T00:05:50;8.00;43.50
2220;DHT22;1116;51.502;7.414;2024-02-26T00:08:21;7.90;42.70
2220;DHT22;1116;51.502;7.414;2024-02-26T00:10:51;8.00;44.50
2220;DHT22;1116;51.502;7.414;2024-02-26T00:13:21;8.00;45.00
2220;DHT22;1116;51.502;7.414;2024-02-26T00:15:51;8.10;44.00
2220;DHT22;1116;51.502;7.414;2024-02-26T00:18:23;8.10;44.80
2220;DHT22;1116;51.502;7.414;2024-02-26T00:20:54;8.10;44.80
2220;DHT22;1116;51.502;7.414;2024-02-26T00:23:24;8.00;44.10
2220;DHT22;1116;51.502;7.414;2024-02-26T00:25:54;7.90;44.30
2220;DHT22;1116;51.502;7.414;2024-02-26T00:28:24;7.90;44.80
2220;DHT22;1116;51.502;7.414;2024-02-26T00:30:56;8.00;46.20
2220;DHT22;1116;51.502;7.414;2024-02-26T00:33:29;7.90;43.90
2220;DHT22;1116;51.502;7.414;2024-02-26T00:35:59;7.80;45.00
2220;DHT22;1116;51.502;7.414;2024-02-26T00:38:29;7.80;44.60
2220;DHT22;1116;51.502;7.414;2024-02-26T00:40:59;7.90;43.70
2220;DHT22;1116;51.502;7.414;2024-02-26T00:43:29;8.00;45.40
2220;DHT22;1116;51.502;7.414;2024-02-26T00:45:59;8.00;44.50
2220;DHT22;1116;51.502;7.414;2024-02-26T00:48:32;8.10;44.30
2220;DHT22;1116;51.502;7.414;2024-02-26T00:51:03;8.10;44.70
2220;DHT22;1116;51.502;7.414;2024-02-26T00:53:34;8.10;45.00
2220;DHT22;1116;51.502;7.414;2024-02-26T00:56:05;8.20;44.40
2220;DHT22;1116;51.502;7.414;2024-02-26T00:58:35;8.10;44.80
2220;DHT22;1116;51.502;7.414;2024-02-26T01:01:05;8.10;42.90
2220;DHT22;1116;51.502;7.414;2024-02-26T01:03:39;8.10;45.00
2220;DHT22;1116;51.502;7.414;2024-02-26T01:06:09;8.00;44.30
2220;DHT22;1116;51.502;7.414;2024-02-26T01:08:39;7.90;44.60
2220;DHT22;1116;51.502;7.414;2024-02-26T01:11:09;7.90;45.40
2220;DHT22;1116;51.502;7.414;2024-02-26T01:13:39;7.90;45.30
2220;DHT22;1116;51.502;7.414;2024-02-26T01:16:09;7.80;45.10
2220;DHT22;1116;51.502;7.414;2024-02-26T01:18:42;7.80;45.90
2220;DHT22;1116;51.502;7.414;2024-02-26T01:21:13;7.90;45.80
2220;DHT22;1116;51.502;7.414;2024-02-26T01:23:43;7.80;46.20
2220;DHT22;1116;51.502;7.414;2024-02-26T01:26:13;7.90;45.50
2220;DHT22;1116;51.502;7.414;2024-02-26T01:28:43;7.90;45.80
2220;DHT22;1116;51.502;7.414;2024-02-26T01:31:13;7.90;45.10
2220;DHT22;1116;51.502;7.414;2024-02-26T01:33:46;7.90;45.50
2220;DHT22;1116;51.502;7.414;2024-02-26T01:36:16;8.00;45.80
2220;DHT22;1116;51.502;7.414;2024-02-26T01:38:47;7.90;44.30
2220;DHT22;1116;51.502;7.414;2024-02-26T01:41:17;7.90;44.60
2220;DHT22;1116;51.502;7.414;2024-02-26T01:43:47;7.70;44.70
2220;DHT22;1116;51.502;7.414;2024-02-26T01:46:17;7.90;45.70
2220;DHT22;1116;51.502;7.414;2024-02-26T01:48:50;8.00;44.00
2220;DHT22;1116;51.502;7.414;2024-02-26T01:51:20;8.10;43.60
2220;DHT22;1116;51.502;7.414;2024-02-26T01:53:51;8.10;43.90
2220;DHT22;1116;51.502;7.414;2024-02-26T01:56:21;8.00;44.00
2220;DHT22;1116;51.502;7.414;2024-02-26T01:58:55;8.00;44.10
2220;DHT22;1116;51.502;7.414;2024-02-26T02:01:25;8.00;43.40
2220;DHT22;1116;51.502;7.414;2024-02-26T02:04:00;8.10;45.10
2220;DHT22;1116;51.502;7.414;2024-02-26T02:06:30;8.10;44.10
2220;DHT22;1116;51.502;7.414;2024-02-26T02:09:00;8.00;43.80
2220;DHT22;1116;51.502;7.414;2024-02-26T02:11:33;8.10;44.00
2220;DHT22;1116;51.502;7.414;2024-02-26T02:14:03;8.00;43.20
2220;DHT22;1116;51.502;7.414;2024-02-26T02:16:34;8.00;43.30
2220;DHT22;1116;51.502;7.414;2024-02-26T02:19:06;8.00;43.70
2220;DHT22;1116;51.502;7.414;2024-02-26T02:21:39;8.00;43.40
2220;DHT22;1116;51.502;7.414;2024-02-26T02:24:09;7.80;43.40
2220;DHT22;1116;51.502;7.414;2024-02-26T02:26:39;7.90;43.30
2220;DHT22;1116;51.502;7.414;2024-02-26T02:29:10;8.00;44.30
2220;DHT22;1116;51.502;7.414;2024-02-26T02:31:41;8.50;43.40
2220;DHT22;1116;51.502;7.414;2024-02-26T02:34:12;8.10;43.50
2220;DHT22;1116;51.502;7.414;2024-02-26T02:36:52;8.00;42.80
2220;DHT22;1116;51.502;7.414;2024-02-26T02:39:22;8.10;43.20
2220;DHT22;1116;51.502;7.414;2024-02-26T02:41:52;8.10;43.70
2220;DHT22;1116;51.502;7.414;2024-02-26T02:44:22;8.10;43.40
2220;DHT22;1116;51.502;7.414;2024-02-26T02:46:52;8.10;43.20
2220;DHT22;1116;51.502;7.414;2024-02-26T02:49:22;8.00;42.80
2220;DHT22;1116;51.502;7.414;2024-02-26T02:51:56;8.00;42.40
2220;DHT22;1116;51.502;7.414;2024-02-26T02:54:26;8.00;43.40
2220;DHT22;1116;51.502;7.414;2024-02-26T02:56:56;8.00;43.30
2220;DHT22;1116;51.502;7.414;2024-02-26T02:59:26;7.90;44.40
2220;DHT22;1116;51.502;7.414;2024-02-26T03:01:56;7.90;42.70
2220;DHT22;1116;51.502;7.414;2024-02-26T03:04:26;7.90;44.20
2220;DHT22;1116;51.502;7.414;2024-02-26T03:06:59;7.90;43.30
2220;DHT22;1116;51.502;7.414;2024-02-26T03:09:30;7.90;44.30
2220;DHT22;1116;51.502;7.414;2024-02-26T03:12:00;8.10;44.50
2220;DHT22;1116;51.502;7.414;2024-02-26T03:14:30;8.00;43.70
2220;DHT22;1116;51.502;7.414;2024-02-26T03:17:00;8.00;43.20
2220;DHT22;1116;51.502;7.414;2024-02-26T03:19:30;8.00;42.60
2220;DHT22;1116;51.502;7.414;2024-02-26T03:22:03;7.90;43.70
2220;DHT22;1116;51.502;7.414;2024-02-26T03:24:33;8.00;44.00
2220;DHT22;1116;51.502;7.414;2024-02-26T03:27:03;8.00;43.50
2220;DHT22;1116;51.502;7.414;2024-02-26T03:29:37;8.00;44.40
2220;DHT22;1116;51.502;7.414;2024-02-26T03:32:07;8.00;44.80
2220;DHT22;1116;51.502;7.414;2024-02-26T03:34:37;7.90;44.50
2220;DHT22;1116;51.502;7.414;2024-02-26T03:37:10;7.90;46.00
2220;DHT22;1116;51.502;7.414;2024-02-26T03:39:40;7.90;44.90
2220;DHT22;1116;51.502;7.414;2024-02-26T03:42:10;8.00;46.10
2220;DHT22;1116;51.502;7.414;2024-02-26T03:44:40;7.80;47.50
2220;DHT22;1116;51.502;7.414;2024-02-26T03:47:10;7.80;48.30
2220;DHT22;1116;51.502;7.414;2024-02-26T03:49:40;7.60;47.80
2220;DHT22;1116;51.502;7.414;2024-02-26T03:52:13;7.40;51.40
2220;DHT22;1116;51.502;7.414;2024-02-26T03:54:43;7.40;53.10
2220;DHT22;1116;51.502;7.414;2024-02-26T03:57:13;7.10;53.20
2220;DHT22;1116;51.502;7.414;2024-02-26T03:59:43;7.00;53.20
2220;DHT22;1116;51.502;7.414;2024-02-26T04:02:13;7.00;55.70
2220;DHT22;1116;51.502;7.414;2024-02-26T04:04:43;7.00;57.20
2220;DHT22;1116;51.502;7.414;2024-02-26T04:07:16;7.00;58.60
2220;DHT22;1116;51.502;7.414;2024-02-26T04:09:46;6.90;58.90
2220;DHT22;1116;51.502;7.414;2024-02-26T04:12:16;6.80;58.50
2220;DHT22;1116;51.502;7.414;2024-02-26T04:14:46;6.80;58.90
2220;DHT22;1116;51.502;7.414;2024-02-26T04:17:16;6.90;60.90
2220;DHT22;1116;51.502;7.414;2024-02-26T04:19:46;6.80;60.40
2220;DHT22;1116;51.502;7.414;2024-02-26T04:22:19;6.80;61.00
2220;DHT22;1116;51.502;7.414;2024-02-26T04:24:49;6.70;60.90
2220;DHT22;1116;51.502;7.414;2024-02-26T04:27:19;6.70;62.80
2220;DHT22;1116;51.502;7.414;2024-02-26T04:29:49;6.70;63.20
2220;DHT22;1116;51.502;7.414;2024-02-26T04:32:19;6.80;64.10
2220;DHT22;1116;51.502;7.414;2024-02-26T04:34:50;6.80;62.90
2220;DHT22;1116;51.502;7.414;2024-02-26T04:37:23;6.80;64.00
2220;DHT22;1116;51.502;7.414;2024-02-26T04:39:58;6.80;63.40
2220;DHT22;1116;51.502;7.414;2024-02-26T04:42:29;6.90;99.90
2220;DHT22;1116;51.502;7.414;2024-02-26T04:44:59;6.80;97.20
2220;DHT22;1116;51.502;7.414;2024-02-26T04:47:29;6.80;84.50
2220;DHT22;1116;51.502;7.414;2024-02-26T04:49:59;6.90;82.40
2220;DHT22;1116;51.502;7.414;2024-02-26T04:52:32;6.90;76.80
2220;DHT22;1116;51.502;7.414;2024-02-26T04:55:03;6.90;70.40
2220;DHT22;1116;51.502;7.414;2024-02-26T04:57:34;6.90;69.30
2220;DHT22;1116;51.502;7.414;2024-02-26T05:00:04;6.90;69.20
2220;DHT22;1116;51.502;7.414;2024-02-26T05:02:35;6.90;70.10
2220;DHT22;1116;51.502;7.414;2024-02-26T05:05:06;7.00;69.60
2220;DHT22;1116;51.502;7.414;2024-02-26T05:07:42;7.00;70.10
2220;DHT22;1116;51.502;7.414;2024-02-26T05:10:12;7.00;68.70
2220;DHT22;1116;51.502;7.414;2024-02-26T05:12:42;7.00;67.10
2220;DHT22;1116;51.502;7.414;2024-02-26T05:15:12;7.00;67.70
2220;DHT22;1116;51.502;7.414;2024-02-26T05:17:45;7.10;69.40
2220;DHT22;1116;51.502;7.414;2024-02-26T05:20:15;7.10;68.10
2220;DHT22;1116;51.502;7.414;2024-02-26T05:22:48;7.10;69.10
2220;DHT22;1116;51.502;7.414;2024-02-26T05:25:18;7.10;68.60
2220;DHT22;1116;51.502;7.414;2024-02-26T05:27:48;7.00;68.30
2220;DHT22;1116;51.502;7.414;2024-02-26T05:30:18;6.90;66.70
2220;DHT22;1116;51.502;7.414;2024-02-26T05:32:48;6.90;70.10
2220;DHT22;1116;51.502;7.414;2024-02-26T05:35:19;6.80;67.60
2220;DHT22;1116;51.502;7.414;2024-02-26T05:37:51;6.90;72.00
2220;DHT22;1116;51.502;7.414;2024-02-26T05:40:21;6.70;71.50
2220;DHT22;1116;51.502;7.414;2024-02-26T05:42:51;6.70;74.90
2220;DHT22;1116;51.502;7.414;2024-02-26T05:45:21;6.80;74.60
2220;DHT22;1116;51.502;7.414;2024-02-26T05:47:52;6.40;99.90
2220;DHT22;1116;51.502;7.414;2024-02-26T05:50:22;6.40;99.90
2220;DHT22;1116;51.502;7.414;2024-02-26T05:52:55;6.40;99.90
2220;DHT22;1116;51.502;7.414;2024-02-26T05:55:25;6.30;99.90
2220;DHT22;1116;51.502;7.414;2024-02-26T05:57:55;6.10;99.90
2220;DHT22;1116;51.502;7.414;2024-02-26T06:00:25;6.10;99.90
2220;DHT22;1116;51.502;7.414;2024-02-26T06:02:55;6.20;99.90
2220;DHT22;1116;51.502;7.414;2024-02-26T06:05:25;6.20;99.90
2220;DHT22;1116;51.502;7.414;2024-02-26T06:07:58;6.20;99.90
2220;DHT22;1116;51.502;7.414;2024-02-26T06:10:28;6.30;99.90
2220;DHT22;1116;51.502;7.414;2024-02-26T06:12:58;6.30;99.90
2220;DHT22;1116;51.502;7.414;2024-02-26T06:15:28;6.30;99.90
2220;DHT22;1116;51.502;7.414;2024-02-26T06:17:58;6.30;99.90
2220;DHT22;1116;51.502;7.414;2024-02-26T06:20:28;6.30;99.90
2220;DHT22;1116;51.502;7.414;2024-02-26T06:23:01;6.30;99.90
2220;DHT22;1116;51.502;7.414;2024-02-26T06:25:31;6.40;99.90
2220;DHT22;1116;51.502;7.414;2024-02-26T06:28:01;6.30;99.90
2220;DHT22;1116;51.502;7.414;2024-02-26T06:30:31;6.30;99.90
2220;DHT22;1116;51.502;7.414;2024-02-26T06:33:02;6.20;99.90
2220;DHT22;1116;51.502;7.414;2024-02-26T06:35:32;6.20;99.90
2220;DHT22;1116;51.502;7.414;2024-02-26T06:38:05;6.30;99.90
2220;DHT22;1116;51.502;7.414;2024-02-26T06:40:36;6.30;99.90
2220;DHT22;1116;51.502;7.414;2024-02-26T06:43:06;6.30;99.90
2220;DHT22;1116;51.502;7.414;2024-02-26T06:45:36;6.20;99.90
2220;DHT22;1116;51.502;7.414;2024-02-26T06:48:07;6.30;99.90
2220;DHT22;1116;51.502;7.414;2024-02-26T06:50:37;6.30;99.90
2220;DHT22;1116;51.502;7.414;2024-02-26T06:53:11;6.10;99.90
2220;DHT22;1116;51.502;7.414;2024-02-26T06:55:41;6.20;99.90
2220;DHT22;1116;51.502;7.414;2024-02-26T06:58:11;6.20;99.90
2220;DHT22;1116;51.502;7.414;2024-02-26T07:00:42;6.30;99.90
2220;DHT22;1116;51.502;7.414;2024-02-26T07:03:13;6.20;99.90
2220;DHT22;1116;51.502;7.414;2024-02-26T07:05:43;6.30;99.90
2220;DHT22;1116;51.502;7.414;2024-02-26T07:08:17;6.20;99.90
2220;DHT22;1116;51.502;7.414;2024-02-26T07:10:48;6.30;99.90
2220;DHT22;1116;51.502;7.414;2024-02-26T07:13:18;6.30;99.90
2220;DHT22;1116;51.502;7.414;2024-02-26T07:15:48;6.30;99.90
2220;DHT22;1116;51.502;7.414;2024-02-26T07:18:18;6.40;99.90
2220;DHT22;1116;51.502;7.414;2024-02-26T07:20:48;6.40;99.90
2220;DHT22;1116;51.502;7.414;2024-02-26T07:23:21;6.30;99.90
2220;DHT22;1116;51.502;7.414;2024-02-26T07:25:51;6.20;99.90
2220;DHT22;1116;51.502;7.414;2024-02-26T07:28:21;6.50;99.90
2220;DHT22;1116;51.502;7.414;2024-02-26T07:30:51;6.30;99.90
2220;DHT22;1116;51.502;7.414;2024-02-26T07:33:21;6.30;99.90
2220;DHT22;1116;51.502;7.414;2024-02-26T07:35:51;6.50;99.90
2220;DHT22;1116;51.502;7.414;2024-02-26T07:38:24;6.70;99.90
2220;DHT22;1116;51.502;7.414;2024-02-26T07:41:08;6.80;99.90
2220;DHT22;1116;51.502;7.414;2024-02-26T07:43:38;6.60;99.90
2220;DHT22;1116;51.502;7.414;2024-02-26T07:46:11;6.70;99.90
2220;DHT22;1116;51.502;7.414;2024-02-26T07:48:42;6.80;99.90
2220;DHT22;1116;51.502;7.414;2024-02-26T07:51:13;6.80;99.90
2220;DHT22;1116;51.502;7.414;2024-02-26T07:53:46;6.90;99.90
2220;DHT22;1116;51.502;7.414;2024-02-26T07:56:16;6.80;99.90
2220;DHT22;1116;51.502;7.414;2024-02-26T07:58:46;6.80;99.90
2220;DHT22;1116;51.502;7.414;2024-02-26T08:01:16;6.90;99.90
2220;DHT22;1116;51.502;7.414;2024-02-26T08:03:46;6.80;99.90
2220;DHT22;1116;51.502;7.414;2024-02-26T08:06:17;6.70;99.90
2220;DHT22;1116;51.502;7.414;2024-02-26T08:08:49;6.70;99.90
2220;DHT22;1116;51.502;7.414;2024-02-26T08:11:22;6.90;99.90
2220;DHT22;1116;51.502;7.414;2024-02-26T08:13:52;6.90;99.90
2220;DHT22;1116;51.502;7.414;2024-02-26T08:16:22;6.80;99.90
2220;DHT22;1116;51.502;7.414;2024-02-26T08:18:53;6.90;99.90
2220;DHT22;1116;51.502;7.414;2024-02-26T08:21:24;6.90;99.90
2220;DHT22;1116;51.502;7.414;2024-02-26T08:23:56;6.90;99.90
2220;DHT22;1116;51.502;7.414;2024-02-26T08:26:26;6.90;99.90
2220;DHT22;1116;51.502;7.414;2024-02-26T08:28:56;6.80;99.90
2220;DHT22;1116;51.502;7.414;2024-02-26T08:31:27;7.00;99.90
2220;DHT22;1116;51.502;7.414;2024-02-26T08:33:57;7.00;99.90
2220;DHT22;1116;51.502;7.414;2024-02-26T08:36:28;7.10;99.90
2220;DHT22;1116;51.502;7.414;2024-02-26T08:39:01;7.10;99.90
2220;DHT22;1116;51.502;7.414;2024-02-26T08:41:32;7.10;99.90
2220;DHT22;1116;51.502;7.414;2024-02-26T08:44:02;7.20;99.90
2220;DHT22;1116;51.502;7.414;2024-02-26T08:46:32;7.20;99.90
2220;DHT22;1116;51.502;7.414;2024-02-26T08:49:03;7.20;99.90
2220;DHT22;1116;51.502;7.414;2024-02-26T08:51:33;7.30;99.90
2220;DHT22;1116;51.502;7.414;2024-02-26T08:54:06;7.10;99.90
2220;DHT22;1116;51.502;7.414;2024-02-26T08:56:36;7.10;99.90
2220;DHT22;1116;51.502;7.414;2024-02-26T08:59:06;7.20;99.90
2220;DHT22;1116;51.502;7.414;2024-02-26T09:01:36;7.20;99.90
2220;DHT22;1116;51.502;7.414;2024-02-26T09:04:06;7.20;99.90
2220;DHT22;1116;51.502;7.414;2024-02-26T09:06:36;7.10;99.90
2220;DHT22;1116;51.502;7.414;2024-02-26T09:09:08;7.20;99.90
2220;DHT22;1116;51.502;7.414;2024-02-26T09:11:39;7.30;99.90
2220;DHT22;1116;51.502;7.414;2024-02-26T09:14:09;7.30;99.90
2220;DHT22;1116;51.502;7.414;2024-02-26T09:16:39;7.40;99.90
2220;DHT22;1116;51.502;7.414;2024-02-26T09:19:09;7.20;99.90
2220;DHT22;1116;51.502;7.414;2024-02-26T09:21:42;7.10;99.50
2220;DHT22;1116;51.502;7.414;2024-02-26T09:24:15;7.30;99.90
2220;DHT22;1116;51.502;7.414;2024-02-26T09:26:45;7.40;99.90
2220;DHT22;1116;51.502;7.414;2024-02-26T09:29:15;7.30;99.40
2220;DHT22;1116;51.502;7.414;2024-02-26T09:31:45;7.40;99.90
2220;DHT22;1116;51.502;7.414;2024-02-26T09:34:16;7.40;99.90
2220;DHT22;1116;51.502;7.414;2024-02-26T09:36:46;7.40;99.00
2220;DHT22;1116;51.502;7.414;2024-02-26T09:39:19;7.50;99.40
2220;DHT22;1116;51.502;7.414;2024-02-26T09:41:49;7.30;97.10
2220;DHT22;1116;51.502;7.414;2024-02-26T09:44:20;7.30;97.40
2220;DHT22;1116;51.502;7.414;2024-02-26T09:46:52;7.40;99.00
2220;DHT22;1116;51.502;7.414;2024-02-26T09:49:23;7.50;98.40
2220;DHT22;1116;51.502;7.414;2024-02-26T09:51:54;7.40;96.30
2220;DHT22;1116;51.502;7.414;2024-02-26T09:54:30;7.40;97.30
2220;DHT22;1116;51.502;7.414;2024-02-26T09:57:03;7.30;94.80
2220;DHT22;1116;51.502;7.414;2024-02-26T09:59:39;7.40;96.30
2220;DHT22;1116;51.502;7.414;2024-02-26T10:02:12;7.60;96.60
2220;DHT22;1116;51.502;7.414;2024-02-26T10:04:43;7.60;96.30
2220;DHT22;1116;51.502;7.414;2024-02-26T10:07:17;7.60;95.50
2220;DHT22;1116;51.502;7.414;2024-02-26T10:09:51;7.70;96.10
2220;DHT22;1116;51.502;7.414;2024-02-26T10:12:21;7.60;95.30
2220;DHT22;1116;51.502;7.414;2024-02-26T10:14:52;7.80;95.60
2220;DHT22;1116;51.502;7.414;2024-02-26T10:17:22;7.70;94.80
2220;DHT22;1116;51.502;7.414;2024-02-26T10:19:52;7.70;94.40
2220;DHT22;1116;51.502;7.414;2024-02-26T10:22:23;7.80;94.90
2220;DHT22;1116;51.502;7.414;2024-02-26T10:24:56;7.90;94.90
2220;DHT22;1116;51.502;7.414;2024-02-26T10:27:28;7.90;95.70
2220;DHT22;1116;51.502;7.414;2024-02-26T10:30:02;8.00;95.20
2220;DHT22;1116;51.502;7.414;2024-02-26T10:32:33;8.00;93.70
2220;DHT22;1116;51.502;7.414;2024-02-26T10:35:08;8.00;92.50
2220;DHT22;1116;51.502;7.414;2024-02-26T10:37:39;7.90;90.80
2220;DHT22;1116;51.502;7.414;2024-02-26T10:40:14;7.90;92.00
2220;DHT22;1116;51.502;7.414;2024-02-26T10:42:44;8.00;93.40
2220;DHT22;1116;51.502;7.414;2024-02-26T10:45:14;8.10;93.10
2220;DHT22;1116;51.502;7.414;2024-02-26T10:47:46;8.10;91.70
2220;DHT22;1116;51.502;7.414;2024-02-26T10:50:16;8.10;93.00
2220;DHT22;1116;51.502;7.414;2024-02-26T10:52:46;8.20;92.50
2220;DHT22;1116;51.502;7.414;2024-02-26T10:55:20;8.20;92.00
2220;DHT22;1116;51.502;7.414;2024-02-26T10:57:52;8.40;92.80
2220;DHT22;1116;51.502;7.414;2024-02-26T11:00:22;8.40;92.50
2220;DHT22;1116;51.502;7.414;2024-02-26T11:02:53;8.50;92.40
2220;DHT22;1116;51.502;7.414;2024-02-26T11:05:25;8.50;92.30
2220;DHT22;1116;51.502;7.414;2024-02-26T11:07:55;8.50;92.30
2220;DHT22;1116;51.502;7.414;2024-02-26T11:10:29;8.50;91.70
2220;DHT22;1116;51.502;7.414;2024-02-26T11:13:01;8.40;90.50
2220;DHT22;1116;51.502;7.414;2024-02-26T11:15:32;8.40;90.20
2220;DHT22;1116;51.502;7.414;2024-02-26T11:18:03;8.60;91.60
2220;DHT22;1116;51.502;7.414;2024-02-26T11:20:34;8.60;88.80
2220;DHT22;1116;51.502;7.414;2024-02-26T11:23:08;8.70;90.70
2220;DHT22;1116;51.502;7.414;2024-02-26T11:25:41;8.80;89.80
2220;DHT22;1116;51.502;7.414;2024-02-26T11:28:15;8.80;89.70
2220;DHT22;1116;51.502;7.414;2024-02-26T11:30:48;8.90;90.00
2220;DHT22;1116;51.502;7.414;2024-02-26T11:33:19;8.80;89.10
2220;DHT22;1116;51.502;7.414;2024-02-26T11:35:50;8.70;85.70
2220;DHT22;1116;51.502;7.414;2024-02-26T11:38:20;8.70;87.60
2220;DHT22;1116;51.502;7.414;2024-02-26T11:40:54;8.70;86.30
2220;DHT22;1116;51.502;7.414;2024-02-26T11:43:50;8.60;85.70
2220;DHT22;1116;51.502;7.414;2024-02-26T11:46:28;8.70;87.20
2220;DHT22;1116;51.502;7.414;2024-02-26T11:49:00;10.40;86.30
2220;DHT22;1116;51.502;7.414;2024-02-26T11:51:33;8.80;86.00
2220;DHT22;1116;51.502;7.414;2024-02-26T11:54:04;8.80;84.40
2220;DHT22;1116;51.502;7.414;2024-02-26T11:56:40;8.80;84.60
2220;DHT22;1116;51.502;7.414;2024-02-26T11:59:11;8.90;85.10
2220;DHT22;1116;51.502;7.414;2024-02-26T12:01:45;8.90;83.50
2220;DHT22;1116;51.502;7.414;2024-02-26T12:04:21;8.90;82.00
2220;DHT22;1116;51.502;7.414;2024-02-26T12:06:55;8.90;82.60
2220;DHT22;1116;51.502;7.414;2024-02-26T12:09:31;8.90;82.00
2220;DHT22;1116;51.502;7.414;2024-02-26T12:12:03;8.90;80.60
2220;DHT22;1116;51.502;7.414;2024-02-26T12:14:37;9.00;81.10
2220;DHT22;1116;51.502;7.414;2024-02-26T12:17:19;9.00;83.80
2220;DHT22;1116;51.502;7.414;2024-02-26T12:19:50;9.00;81.40
2220;DHT22;1116;51.502;7.414;2024-02-26T12:22:23;9.00;81.60
2220;DHT22;1116;51.502;7.414;2024-02-26T12:24:58;8.80;80.30
2220;DHT22;1116;51.502;7.414;2024-02-26T12:27:32;8.70;78.90
2220;DHT22;1116;51.502;7.414;2024-02-26T12:30:03;8.60;79.00
2220;DHT22;1116;51.502;7.414;2024-02-26T12:32:34;8.50;80.20
2220;DHT22;1116;51.502;7.414;2024-02-26T12:35:06;8.80;82.30
2220;DHT22;1116;51.502;7.414;2024-02-26T12:37:37;8.90;81.90
2220;DHT22;1116;51.502;7.414;2024-02-26T12:40:11;9.00;80.70
2220;DHT22;1116;51.502;7.414;2024-02-26T12:42:44;8.90;79.50
2220;DHT22;1116;51.502;7.414;2024-02-26T12:45:14;8.80;76.90
2220;DHT22;1116;51.502;7.414;2024-02-26T12:47:45;8.90;79.10
2220;DHT22;1116;51.502;7.414;2024-02-26T12:50:17;8.90;79.60
2220;DHT22;1116;51.502;7.414;2024-02-26T12:52:47;8.90;77.70
2220;DHT22;1116;51.502;7.414;2024-02-26T12:55:19;8.60;75.80
2220;DHT22;1116;51.502;7.414;2024-02-26T12:57:53;8.50;76.70
2220;DHT22;1116;51.502;7.414;2024-02-26T13:00:26;8.50;78.30
2220;DHT22;1116;51.502;7.414;2024-02-26T13:02:57;8.60;78.30
2220;DHT22;1116;51.502;7.414;2024-02-26T13:05:29;8.60;77.60
2220;DHT22;1116;51.502;7.414;2024-02-26T13:08:00;8.70;77.30
2220;DHT22;1116;51.502;7.414;2024-02-26T13:10:35;8.70;76.20
2220;DHT22;1116;51.502;7.414;2024-02-26T13:13:07;8.80;77.20
2220;DHT22;1116;51.502;7.414;2024-02-26T13:15:37;8.80;78.10
2220;DHT22;1116;51.502;7.414;2024-02-26T13:18:11;8.80;75.50
2220;DHT22;1116;51.502;7.414;2024-02-26T13:20:43;8.70;74.30
2220;DHT22;1116;51.502;7.414;2024-02-26T13:23:13;8.70;75.40
2220;DHT22;1116;51.502;7.414;2024-02-26T13:25:43;8.70;74.20
2220;DHT22;1116;51.502;7.414;2024-02-26T13:28:18;8.70;73.90
2220;DHT22;1116;51.502;7.414;2024-02-26T13:30:50;8.70;72.10
2220;DHT22;1116;51.502;7.414;2024-02-26T13:33:23;8.70;72.40
2220;DHT22;1116;51.502;7.414;2024-02-26T13:35:55;8.80;72.50
2220;DHT22;1116;51.502;7.414;2024-02-26T13:38:26;8.80;70.30
2220;DHT22;1116;51.502;7.414;2024-02-26T13:40:56;8.90;71.80
2220;DHT22;1116;51.502;7.414;2024-02-26T13:43:29;9.00;69.10
2220;DHT22;1116;51.502;7.414;2024-02-26T13:46:00;9.00;70.60
2220;DHT22;1116;51.502;7.414;2024-02-26T13:48:30;9.10;70.80
2220;DHT22;1116;51.502;7.414;2024-02-26T13:51:00;9.20;70.60
2220;DHT22;1116;51.502;7.414;2024-02-26T13:53:31;9.20;68.20
2220;DHT22;1116;51.502;7.414;2024-02-26T13:56:02;9.20;68.50
2220;DHT22;1116;51.502;7.414;2024-02-26T13:58:35;9.80;67.70
2220;DHT22;1116;51.502;7.414;2024-02-26T14:01:05;9.30;68.10
2220;DHT22;1116;51.502;7.414;2024-02-26T14:03:35;9.30;66.00
2220;DHT22;1116;51.502;7.414;2024-02-26T14:06:05;9.40;67.50
2220;DHT22;1116;51.502;7.414;2024-02-26T14:08:36;9.40;65.70
2220;DHT22;1116;51.502;7.414;2024-02-26T14:11:06;9.40;66.10
2220;DHT22;1116;51.502;7.414;2024-02-26T14:13:39;9.50;67.80
2220;DHT22;1116;51.502;7.414;2024-02-26T14:16:12;9.50;66.00
2220;DHT22;1116;51.502;7.414;2024-02-26T14:18:42;9.50;65.10
2220;DHT22;1116;51.502;7.414;2024-02-26T14:21:14;9.50;66.10
2220;DHT22;1116;51.502;7.414;2024-02-26T14:23:44;9.60;64.80
2220;DHT22;1116;51.502;7.414;2024-02-26T14:26:14;9.60;65.20
2220;DHT22;1116;51.502;7.414;2024-02-26T14:28:47;9.50;62.60
2220;DHT22;1116;51.502;7.414;2024-02-26T14:31:17;9.60;62.70
2220;DHT22;1116;51.502;7.414;2024-02-26T14:33:48;9.60;61.20
2220;DHT22;1116;51.502;7.414;2024-02-26T14:36:20;9.60;61.30
2220;DHT22;1116;51.502;7.414;2024-02-26T14:38:51;9.80;61.30
2220;DHT22;1116;51.502;7.414;2024-02-26T14:41:21;9.90;62.00
2220;DHT22;1116;51.502;7.414;2024-02-26T14:43:54;9.90;60.80
2220;DHT22;1116;51.502;7.414;2024-02-26T14:46:24;10.00;60.00
2220;DHT22;1116;51.502;7.414;2024-02-26T14:48:54;9.90;58.70
2220;DHT22;1116;51.502;7.414;2024-02-26T14:51:25;9.90;58.50
2220;DHT22;1116;51.502;7.414;2024-02-26T14:53:58;9.90;59.80
2220;DHT22;1116;51.502;7.414;2024-02-26T14:56:29;10.00;57.40
2220;DHT22;1116;51.502;7.414;2024-02-26T14:59:02;9.90;57.00
2220;DHT22;1116;51.502;7.414;2024-02-26T15:01:33;9.90;58.70
2220;DHT22;1116;51.502;7.414;2024-02-26T15:04:03;10.10;57.40
2220;DHT22;1116;51.502;7.414;2024-02-26T15:06:33;10.10;54.40
2220;DHT22;1116;51.502;7.414;2024-02-26T15:09:04;10.20;55.00
2220;DHT22;1116;51.502;7.414;2024-02-26T15:11:37;10.10;52.60
2220;DHT22;1116;51.502;7.414;2024-02-26T15:14:11;10.10;53.80
2220;DHT22;1116;51.502;7.414;2024-02-26T15:16:41;10.20;55.00
2220;DHT22;1116;51.502;7.414;2024-02-26T15:19:11;10.10;50.90
2220;DHT22;1116;51.502;7.414;2024-02-26T15:21:43;10.00;50.10
2220;DHT22;1116;51.502;7.414;2024-02-26T15:24:14;9.80;51.20
2220;DHT22;1116;51.502;7.414;2024-02-26T15:26:45;9.90;52.90
2220;DHT22;1116;51.502;7.414;2024-02-26T15:29:18;9.80;51.50
2220;DHT22;1116;51.502;7.414;2024-02-26T15:31:48;9.80;52.00
2220;DHT22;1116;51.502;7.414;2024-02-26T15:34:18;9.80;52.40
2220;DHT22;1116;51.502;7.414;2024-02-26T15:36:48;9.80;50.80
2220;DHT22;1116;51.502;7.414;2024-02-26T15:39:19;9.80;51.60
2220;DHT22;1116;51.502;7.414;2024-02-26T15:41:50;9.80;53.30
2220;DHT22;1116;51.502;7.414;2024-02-26T15:44:23;9.80;50.90
2220;DHT22;1116;51.502;7.414;2024-02-26T15:46:53;9.80;51.20
2220;DHT22;1116;51.502;7.414;2024-02-26T15:49:23;9.70;50.90
2220;DHT22;1116;51.502;7.414;2024-02-26T15:51:56;9.80;53.00
2220;DHT22;1116;51.502;7.414;2024-02-26T15:54:26;9.70;52.70
2220;DHT22;1116;51.502;7.414;2024-02-26T15:56:57;9.60;51.10
2220;DHT22;1116;51.502;7.414;2024-02-26T15:59:29;9.70;53.30
2220;DHT22;1116;51.502;7.414;2024-02-26T16:02:00;9.60;51.00
2220;DHT22;1116;51.502;7.414;2024-02-26T16:04:30;9.60;52.70
2220;DHT22;1116;51.502;7.414;2024-02-26T16:07:03;9.60;53.90
2220;DHT22;1116;51.502;7.414;2024-02-26T16:09:41;9.60;52.20
2220;DHT22;1116;51.502;7.414;2024-02-26T16:12:15;9.50;51.90
2220;DHT22;1116;51.502;7.414;2024-02-26T16:14:52;9.40;51.70
2220;DHT22;1116;51.502;7.414;2024-02-26T16:17:25;9.30;51.60
2220;DHT22;1116;51.502;7.414;2024-02-26T16:19:59;9.30;51.50
2220;DHT22;1116;51.502;7.414;2024-02-26T16:22:31;9.20;51.70
2220;DHT22;1116;51.502;7.414;2024-02-26T16:25:03;9.10;52.20
2220;DHT22;1116;51.502;7.414;2024-02-26T16:27:34;9.10;52.40
2220;DHT22;1116;51.502;7.414;2024-02-26T16:30:09;9.10;53.00
2220;DHT22;1116;51.502;7.414;2024-02-26T16:32:40;9.10;51.60
2220;DHT22;1116;51.502;7.414;2024-02-26T16:35:10;9.10;52.20
2220;DHT22;1116;51.502;7.414;2024-02-26T16:37:41;9.10;52.40
2220;DHT22;1116;51.502;7.414;2024-02-26T16:40:13;9.10;53.20
2220;DHT22;1116;51.502;7.414;2024-02-26T16:42:45;9.10;52.80